createdAt,value
2023-12-08T00:00:01.464Z,100405.06
2023-12-08T00:02:34.029Z,100413.31
2023-12-08T00:05:02.268Z,100418.41
2023-12-08T00:07:30.420Z,100395.19
2023-12-08T00:09:59.002Z,100404.28
2023-12-08T00:12:27.394Z,100398.91
2023-12-08T00:14:55.941Z,100388.91
2023-12-08T00:17:25.133Z,100364.66
2023-12-08T00:19:55.042Z,100335.22
2023-12-08T00:22:23.201Z,100372.09
2023-12-08T00:24:52.453Z,100351.75
2023-12-08T00:27:21.030Z,100346.28
2023-12-08T00:29:49.225Z,100343.31
2023-12-08T00:32:17.828Z,100321.88
2023-12-08T00:34:47.577Z,100324.09
2023-12-08T00:37:17.789Z,100322.09
2023-12-08T00:39:45.907Z,100303.31
2023-12-08T00:42:14.172Z,100282.81
2023-12-08T00:44:42.469Z,100297.59
2023-12-08T00:47:10.619Z,100299.81
2023-12-08T00:49:38.990Z,100304.78
2023-12-08T00:52:07.664Z,100299.28
2023-12-08T00:54:37.250Z,100300.41
2023-12-08T00:57:05.949Z,100301.38
2023-12-08T00:59:34.008Z,100274.84
2023-12-08T01:02:02.329Z,100274.03
2023-12-08T01:04:30.814Z,100266.47
2023-12-08T01:06:58.960Z,100273.59
2023-12-08T01:09:27.684Z,100267.94
2023-12-08T01:11:57.550Z,100270.50
2023-12-08T01:14:25.668Z,100266.72
2023-12-08T01:16:54.146Z,100244.69
2023-12-08T01:19:22.590Z,100247.38
2023-12-08T01:21:50.975Z,100252.19
2023-12-08T01:24:19.506Z,100254.97
2023-12-08T01:26:48.315Z,100252.75
2023-12-08T01:29:18.143Z,100234.25
2023-12-08T01:31:46.898Z,100232.97
2023-12-08T01:34:15.216Z,100238.63
2023-12-08T01:36:44.491Z,100228.34
2023-12-08T01:39:14.171Z,100222.81
2023-12-08T01:41:42.832Z,100202.94
2023-12-08T01:44:11.109Z,100204.03
2023-12-08T01:46:41.014Z,100209.97
2023-12-08T01:49:10.340Z,100202.22
2023-12-08T01:51:38.843Z,100202.47
2023-12-08T01:54:08.536Z,100197.84
2023-12-08T01:56:37.167Z,100195.72
2023-12-08T01:59:06.150Z,100189.25
2023-12-08T02:01:36.431Z,100194.34
2023-12-08T02:04:06.497Z,100194.75
2023-12-08T02:06:35.643Z,100187.53
2023-12-08T02:09:04.020Z,100179.19
2023-12-08T02:11:32.536Z,100170.31
2023-12-08T02:14:01.183Z,100168.34
2023-12-08T02:16:35.893Z,100154.50
2023-12-08T02:19:08.581Z,100156.22
2023-12-08T02:21:37.765Z,100139.84
2023-12-08T02:24:08.166Z,100145.91
2023-12-08T02:26:37.215Z,100161.31
2023-12-08T02:29:09.042Z,100155.50
2023-12-08T02:31:40.912Z,100147.19
2023-12-08T02:34:10.974Z,100154.78
2023-12-08T02:36:40.692Z,100156.63
2023-12-08T02:39:12.794Z,100156.22
2023-12-08T02:41:40.937Z,100145.50
2023-12-08T02:44:09.288Z,100137.84
2023-12-08T02:46:37.435Z,100135.59
2023-12-08T02:49:05.728Z,100118.22
2023-12-08T02:51:34.200Z,100122.72
2023-12-08T02:54:02.562Z,100122.28
2023-12-08T02:56:32.298Z,100109.75
2023-12-08T02:59:00.457Z,100110.88
2023-12-08T03:01:28.729Z,100109.59
2023-12-08T03:03:57.060Z,100091.78
2023-12-08T03:06:25.242Z,100097.16
2023-12-08T03:08:53.757Z,100101.34
2023-12-08T03:11:22.032Z,100101.94
2023-12-08T03:13:51.631Z,100117.75
2023-12-08T03:16:20.032Z,100104.19
2023-12-08T03:18:48.619Z,100099.66
2023-12-08T03:21:23.737Z,100110.84
2023-12-08T03:23:52.509Z,100109.38
2023-12-08T03:26:21.720Z,100077.22
2023-12-08T03:28:51.406Z,100112.94
2023-12-08T03:31:27.711Z,100113.91
2023-12-08T03:33:56.454Z,100120.44
2023-12-08T03:36:24.793Z,100113.53
2023-12-08T03:38:52.950Z,100126.78
2023-12-08T03:41:21.148Z,100126.78
2023-12-08T03:43:49.401Z,100134.53
2023-12-08T03:46:19.394Z,100132.13
2023-12-08T03:48:50.944Z,100130.72
2023-12-08T03:51:20.575Z,100129.16
2023-12-08T03:53:48.973Z,100129.03
2023-12-08T03:56:17.045Z,100107.56
2023-12-08T03:58:45.087Z,100113.88
2023-12-08T04:01:19.975Z,100119.25
2023-12-08T04:03:48.547Z,100104.44
2023-12-08T04:06:16.880Z,100111.75
2023-12-08T04:08:45.075Z,100121.53
2023-12-08T04:11:13.257Z,100112.44
2023-12-08T04:13:41.680Z,100104.63
2023-12-08T04:16:10.701Z,100091.50
2023-12-08T04:18:40.353Z,100075.00
2023-12-08T04:21:08.758Z,100087.97
2023-12-08T04:23:38.176Z,100091.09
2023-12-08T04:26:08.879Z,100089.41
2023-12-08T04:28:37.412Z,100108.38
2023-12-08T04:31:05.893Z,100104.41
2023-12-08T04:33:34.870Z,100110.03
2023-12-08T04:36:04.686Z,100099.75
2023-12-08T04:38:32.651Z,100101.84
2023-12-08T04:41:00.909Z,100101.28
2023-12-08T04:43:29.188Z,100096.78
2023-12-08T04:45:57.422Z,100112.91
2023-12-08T04:48:25.705Z,100107.53
2023-12-08T04:50:53.897Z,100097.66
2023-12-08T04:53:23.398Z,100102.72
2023-12-08T04:55:51.399Z,100104.41
2023-12-08T04:58:21.730Z,100097.66
2023-12-08T05:00:53.026Z,100058.56
2023-12-08T05:03:21.375Z,100095.94
2023-12-08T05:05:50.217Z,100096.53
2023-12-08T05:08:18.347Z,100088.03
2023-12-08T05:10:47.920Z,100083.78
2023-12-08T05:13:16.398Z,100076.56
2023-12-08T05:15:45.012Z,100074.75
2023-12-08T05:18:14.480Z,100069.97
2023-12-08T05:20:43.083Z,100071.09
2023-12-08T05:23:11.499Z,100071.94
2023-12-08T05:25:39.720Z,100075.94
2023-12-08T05:28:09.692Z,100069.88
2023-12-08T05:30:37.936Z,100070.13
2023-12-08T05:33:06.358Z,100072.53
2023-12-08T05:35:34.763Z,100065.47
2023-12-08T05:38:03.205Z,100075.94
2023-12-08T05:40:31.327Z,100065.47
2023-12-08T05:42:59.520Z,100060.66
2023-12-08T05:45:28.988Z,100057.53
2023-12-08T05:47:57.543Z,100049.34
2023-12-08T05:50:25.642Z,100045.97
2023-12-08T05:52:53.640Z,100048.78
2023-12-08T05:55:21.969Z,100028.47
2023-12-08T05:57:50.341Z,100055.25
2023-12-08T06:00:20.268Z,100038.97
2023-12-08T06:02:50.507Z,100050.72
2023-12-08T06:05:19.621Z,100045.50
2023-12-08T06:07:47.702Z,100037.16
2023-12-08T06:10:15.848Z,100041.13
2023-12-08T06:12:43.929Z,100038.56
2023-12-08T06:15:13.239Z,100034.16
2023-12-08T06:17:41.418Z,100037.84
2023-12-08T06:20:12.677Z,100040.66
2023-12-08T06:22:41.207Z,100047.00
2023-12-08T06:25:10.510Z,100048.16
2023-12-08T06:27:38.817Z,100046.16
2023-12-08T06:30:09.799Z,100037.97
2023-12-08T06:32:37.909Z,100037.13
2023-12-08T06:35:06.631Z,100033.84
2023-12-08T06:37:36.217Z,100023.38
2023-12-08T06:40:05.846Z,100031.13
2023-12-08T06:42:33.972Z,100022.94
2023-12-08T06:45:01.977Z,100019.84
2023-12-08T06:47:30.070Z,100029.31
2023-12-08T06:49:58.584Z,100024.03
2023-12-08T06:52:26.617Z,100033.41
2023-12-08T06:54:55.956Z,100026.00
2023-12-08T06:57:24.173Z,100026.34
2023-12-08T06:59:54.518Z,100033.41
2023-12-08T07:02:22.637Z,100031.38
2023-12-08T07:04:50.921Z,100020.97
2023-12-08T07:07:18.970Z,100028.31
2023-12-08T07:09:47.172Z,100027.22
2023-12-08T07:12:16.786Z,100032.59
2023-12-08T07:14:44.874Z,100030.59
2023-12-08T07:17:13.056Z,100034.56
2023-12-08T07:19:42.511Z,100035.16
2023-12-08T07:22:10.797Z,100031.78
2023-12-08T07:24:39.162Z,100028.94
2023-12-08T07:27:07.699Z,100037.75
2023-12-08T07:29:37.445Z,100033.06
2023-12-08T07:32:07.455Z,100036.59
2023-12-08T07:34:35.469Z,100044.81
2023-12-08T07:37:03.691Z,100027.31
2023-12-08T07:39:31.936Z,100029.84
2023-12-08T07:42:00.396Z,100034.94
2023-12-08T07:44:28.435Z,100042.00
2023-12-08T07:46:57.765Z,100040.00
2023-12-08T07:49:26.063Z,100044.81
2023-12-08T07:51:54.160Z,100050.16
2023-12-08T07:54:22.183Z,100049.16
2023-12-08T07:56:50.373Z,100051.75
2023-12-08T07:59:18.631Z,100044.84
2023-12-08T08:01:46.622Z,100044.81
2023-12-08T08:04:16.117Z,100045.81
2023-12-08T08:06:44.362Z,100056.94
2023-12-08T08:09:12.470Z,100046.47
2023-12-08T08:11:40.909Z,100054.53
2023-12-08T08:14:08.949Z,100053.84
2023-12-08T08:16:37.277Z,100062.88
2023-12-08T08:19:05.327Z,100061.91
2023-12-08T08:21:34.983Z,100060.06
2023-12-08T08:24:03.420Z,100055.53
2023-12-08T08:26:31.400Z,100042.69
2023-12-08T08:28:59.442Z,100048.78
2023-12-08T08:31:27.988Z,100049.34
2023-12-08T08:33:56.358Z,100057.09
2023-12-08T08:36:27.206Z,100055.25
2023-12-08T08:38:56.584Z,100068.97
2023-12-08T08:41:25.121Z,100069.97
2023-12-08T08:43:53.320Z,100065.41
2023-12-08T08:46:21.366Z,100059.50
2023-12-08T08:48:49.858Z,100065.72
2023-12-08T08:51:18.521Z,100074.75
2023-12-08T08:53:46.917Z,100058.31
2023-12-08T08:56:16.413Z,100059.63
2023-12-08T08:58:44.512Z,100068.09
2023-12-08T09:01:12.936Z,100067.81
2023-12-08T09:03:41.311Z,100054.97
2023-12-08T09:06:09.586Z,100056.66
2023-12-08T09:08:38.487Z,100058.19
2023-12-08T09:11:06.717Z,100054.66
2023-12-08T09:13:36.208Z,100057.78
2023-12-08T09:16:05.377Z,100052.66
2023-12-08T09:18:33.586Z,100053.28
2023-12-08T09:21:02.208Z,100041.78
2023-12-08T09:23:30.415Z,100047.28
2023-12-08T09:25:58.643Z,100047.59
2023-12-08T09:28:26.890Z,100032.22
2023-12-08T09:30:56.504Z,100043.63
2023-12-08T09:33:25.635Z,100042.91
2023-12-08T09:35:56.324Z,100042.09
2023-12-08T09:38:31.445Z,100048.72
2023-12-08T09:41:05.630Z,100049.25
2023-12-08T09:43:43.199Z,100049.56
2023-12-08T09:46:15.637Z,100043.34
2023-12-08T09:48:47.170Z,100058.88
2023-12-08T09:51:16.440Z,100053.25
2023-12-08T09:53:47.160Z,100054.75
2023-12-08T09:56:16.916Z,100059.41
2023-12-08T09:58:47.161Z,100052.31
2023-12-08T10:01:18.433Z,100050.91
2023-12-08T10:03:46.945Z,100042.84
2023-12-08T10:06:16.061Z,100043.84
2023-12-08T10:08:45.384Z,100043.84
2023-12-08T10:11:13.545Z,100047.97
2023-12-08T10:13:41.954Z,100053.28
2023-12-08T10:16:10.419Z,100056.28
2023-12-08T10:18:40.122Z,100063.03
2023-12-08T10:21:16.702Z,100052.31
2023-12-08T10:23:45.945Z,100066.28
2023-12-08T10:26:15.073Z,100065.84
2023-12-08T10:28:44.039Z,100067.69
2023-12-08T10:31:12.352Z,100047.22
2023-12-08T10:33:43.448Z,100051.75
2023-12-08T10:36:12.556Z,100041.00
2023-12-08T10:38:41.509Z,100041.25
2023-12-08T10:41:10.922Z,100040.66
2023-12-08T10:43:40.756Z,100031.69
2023-12-08T10:46:09.918Z,100036.06
2023-12-08T10:48:38.870Z,100032.88
2023-12-08T10:51:14.794Z,100027.91
2023-12-08T10:53:45.594Z,100033.78
2023-12-08T10:56:17.864Z,100024.03
2023-12-08T10:58:51.418Z,100033.38
2023-12-08T11:01:22.881Z,100038.75
2023-12-08T11:04:03.818Z,100040.16
2023-12-08T11:06:39.964Z,100031.81
2023-12-08T11:09:10.844Z,100026.13
2023-12-08T11:11:45.253Z,100026.78
2023-12-08T11:14:19.130Z,100033.19
2023-12-08T11:16:52.815Z,100025.81
2023-12-08T11:19:24.585Z,100040.41
2023-12-08T11:21:55.127Z,100034.56
2023-12-08T11:24:23.908Z,100045.06
2023-12-08T11:26:56.180Z,100027.81
2023-12-08T11:29:31.849Z,100031.19
2023-12-08T11:32:08.531Z,100035.09
2023-12-08T11:34:40.027Z,100021.13
2023-12-08T11:37:10.965Z,100022.44
2023-12-08T11:39:43.963Z,100021.53
2023-12-08T11:42:13.520Z,100025.50
2023-12-08T11:44:44.452Z,100028.88
2023-12-08T11:47:16.895Z,100034.97
2023-12-08T11:49:46.532Z,100010.91
2023-12-08T11:52:19.973Z,100034.31
2023-12-08T11:55:13.467Z,100031.81
2023-12-08T11:57:55.264Z,100029.47
2023-12-08T12:00:25.815Z,100021.13
2023-12-08T12:02:55.741Z,100026.00
2023-12-08T12:05:24.500Z,100023.81
2023-12-08T12:07:56.021Z,100026.50
2023-12-08T12:10:26.948Z,99994.75
2023-12-08T12:12:57.852Z,100020.44
2023-12-08T12:15:27.245Z,99991.78
2023-12-08T12:17:55.906Z,100030.97
2023-12-08T12:20:24.405Z,100026.28
2023-12-08T12:22:52.322Z,100029.34
2023-12-08T12:25:21.935Z,100042.91
2023-12-08T12:27:50.368Z,100036.69
2023-12-08T12:30:18.714Z,100038.81
2023-12-08T12:32:47.183Z,100028.50
2023-12-08T12:35:16.461Z,100035.81
2023-12-08T12:37:44.927Z,100036.81
2023-12-08T12:40:14.784Z,100047.03
2023-12-08T12:42:46.942Z,100040.28
2023-12-08T12:45:28.581Z,100045.19
2023-12-08T12:48:09.282Z,100037.13
2023-12-08T12:50:47.772Z,100034.19
2023-12-08T12:53:16.369Z,100038.72
2023-12-08T12:55:44.657Z,100041.19
2023-12-08T12:58:21.112Z,100042.59
2023-12-08T13:00:49.413Z,100033.53
2023-12-08T13:03:19.429Z,100044.03
2023-12-08T13:05:49.249Z,100009.28
2023-12-08T13:08:18.431Z,99993.22
2023-12-08T13:10:47.144Z,100034.97
2023-12-08T13:13:15.232Z,100040.50
2023-12-08T13:15:45.717Z,100036.13
2023-12-08T13:18:14.814Z,100027.38
2023-12-08T13:20:43.692Z,100046.03
2023-12-08T13:23:11.879Z,100046.03
2023-12-08T13:25:39.934Z,100044.66
2023-12-08T13:28:07.952Z,100046.63
2023-12-08T13:30:36.612Z,100047.19
2023-12-08T13:33:07.614Z,100035.75
2023-12-08T13:35:36.195Z,100036.13
2023-12-08T13:38:04.277Z,100044.28
2023-12-08T13:40:32.410Z,100048.81
2023-12-08T13:43:00.424Z,100046.66
2023-12-08T13:45:28.479Z,100050.97
2023-12-08T13:47:57.068Z,100056.03
2023-12-08T13:50:27.620Z,100051.13
2023-12-08T13:52:55.621Z,100055.22
2023-12-08T13:55:23.883Z,100062.97
2023-12-08T13:57:51.944Z,100059.59
2023-12-08T14:00:20.517Z,100063.81
2023-12-08T14:02:48.735Z,100061.56
2023-12-08T14:05:17.943Z,100057.34
2023-12-08T14:07:48.953Z,100066.94
2023-12-08T14:10:17.021Z,100066.50
2023-12-08T14:12:46.018Z,100069.19
2023-12-08T14:15:14.262Z,100063.72
2023-12-08T14:17:42.390Z,100073.34
2023-12-08T14:20:12.867Z,100086.41
2023-12-08T14:22:40.951Z,100085.41
2023-12-08T14:25:11.029Z,100086.72
2023-12-08T14:27:39.266Z,100083.03
2023-12-08T14:30:09.972Z,100060.03
2023-12-08T14:32:40.147Z,100067.19
2023-12-08T14:35:17.937Z,100088.09
2023-12-08T14:40:21.351Z,100081.81
2023-12-08T14:42:49.669Z,100096.97
2023-12-08T14:45:18.019Z,100094.78
2023-12-08T14:47:46.775Z,100093.16
2023-12-08T14:50:15.017Z,100093.34
2023-12-08T14:52:43.014Z,100099.09
2023-12-08T14:55:16.317Z,100112.72
2023-12-08T14:57:47.269Z,100111.56
2023-12-08T15:00:16.323Z,100106.56
2023-12-08T15:02:45.719Z,100098.34
2023-12-08T15:05:14.087Z,100103.31
2023-12-08T15:07:42.665Z,100103.03
2023-12-08T15:10:11.613Z,100087.03
2023-12-08T15:12:39.773Z,100099.22
2023-12-08T15:18:20.487Z,100112.63
2023-12-08T15:20:55.307Z,100111.78
2023-12-08T15:23:25.015Z,100108.00
2023-12-08T15:25:57.187Z,100111.50
2023-12-08T15:28:25.372Z,100116.00
2023-12-08T15:31:37.913Z,100112.09
2023-12-08T15:34:07.396Z,100118.56
2023-12-08T15:36:35.796Z,100121.72
2023-12-08T15:39:04.296Z,100127.56
2023-12-08T15:41:32.277Z,100131.00
2023-12-08T15:44:00.110Z,100131.22
2023-12-08T15:46:27.814Z,100125.53
2023-12-08T15:48:55.676Z,100132.78
2023-12-08T15:51:25.029Z,100139.19
2023-12-08T15:53:53.240Z,100137.16
2023-12-08T15:56:21.037Z,100138.47
2023-12-08T15:58:48.940Z,100147.63
2023-12-08T16:01:19.924Z,100142.84
2023-12-08T16:03:47.829Z,100146.25
2023-12-08T16:06:16.056Z,100145.09
2023-12-08T16:08:46.040Z,100153.25
2023-12-08T16:11:18.222Z,100165.81
2023-12-08T16:13:47.379Z,100157.00
2023-12-08T16:16:15.432Z,100159.19
2023-12-08T16:18:43.546Z,100165.84
2023-12-08T16:21:21.680Z,100162.31
2023-12-08T16:23:51.042Z,100167.47
2023-12-08T16:26:19.201Z,100171.19
2023-12-08T16:28:47.569Z,100175.66
2023-12-08T16:31:15.574Z,100175.69
2023-12-08T16:33:43.508Z,100176.72
2023-12-08T16:36:11.467Z,100176.47
2023-12-08T16:38:40.198Z,100176.84
2023-12-08T16:41:10.413Z,100181.75
2023-12-08T16:43:38.240Z,100175.91
2023-12-08T16:46:06.284Z,100179.28
2023-12-08T16:48:34.391Z,100177.59
2023-12-08T16:51:03.287Z,100179.97
2023-12-08T16:53:31.444Z,100175.28
2023-12-08T16:55:59.298Z,100179.28
2023-12-08T16:58:28.526Z,100173.56
2023-12-08T17:00:56.329Z,100183.06
2023-12-08T17:03:24.264Z,100188.44
2023-12-08T17:05:52.164Z,100194.81
2023-12-08T17:08:20.422Z,100196.75
2023-12-08T17:10:48.429Z,100197.59
2023-12-08T17:13:16.300Z,100197.28
2023-12-08T17:15:45.938Z,100197.94
2023-12-08T17:18:14.279Z,100193.19
2023-12-08T17:20:42.246Z,100199.91
2023-12-08T17:23:10.408Z,100202.28
2023-12-08T17:25:38.231Z,100204.03
2023-12-08T17:28:06.705Z,100204.38
2023-12-08T17:30:34.759Z,100214.69
2023-12-08T17:33:04.162Z,100212.38
2023-12-08T17:35:32.104Z,100210.38
2023-12-08T17:37:59.921Z,100214.69
2023-12-08T17:40:29.861Z,100210.00
2023-12-08T17:42:57.816Z,100225.53
2023-12-08T17:45:26.169Z,100221.16
2023-12-08T17:47:54.182Z,100222.84
2023-12-08T17:50:23.559Z,100226.22
2023-12-08T17:52:51.449Z,100225.31
2023-12-08T17:55:19.368Z,100236.19
2023-12-08T17:57:47.230Z,100241.97
2023-12-08T18:00:16.882Z,100242.63
2023-12-08T18:02:44.961Z,100256.41
2023-12-08T18:05:15.169Z,100253.91
2023-12-08T18:07:44.626Z,100252.03
2023-12-08T18:10:12.528Z,100251.81
2023-12-08T18:12:40.710Z,100262.53
2023-12-08T18:15:09.289Z,100260.84
2023-12-08T18:17:37.179Z,100263.66
2023-12-08T18:20:06.331Z,100264.50
2023-12-08T18:22:36.944Z,100263.00
2023-12-08T18:25:06.833Z,100260.16
2023-12-08T18:27:46.618Z,100252.47
2023-12-08T18:30:22.816Z,100264.50
2023-12-08T18:32:51.037Z,100262.31
2023-12-08T18:35:19.825Z,100266.72
2023-12-08T18:37:49.018Z,100270.09
2023-12-08T18:40:18.537Z,100267.88
2023-12-08T18:42:48.429Z,100266.34
2023-12-08T18:45:16.701Z,100267.41
2023-12-08T18:47:46.914Z,100269.78
2023-12-08T18:50:16.103Z,100278.94
2023-12-08T18:52:44.027Z,100278.22
2023-12-08T18:55:12.438Z,100283.63
2023-12-08T18:57:41.582Z,100281.44
2023-12-08T19:00:10.592Z,100278.94
2023-12-08T19:02:38.501Z,100278.94
2023-12-08T19:05:06.695Z,100278.28
2023-12-08T19:07:35.500Z,100277.97
2023-12-08T19:10:03.304Z,100280.34
2023-12-08T19:12:31.459Z,100278.81
2023-12-08T19:15:00.766Z,100278.00
2023-12-08T19:17:28.736Z,100269.91
2023-12-08T19:19:56.541Z,100276.38
2023-12-08T19:22:24.669Z,100274.66
2023-12-08T19:24:53.186Z,100258.69
2023-12-08T19:27:21.135Z,100276.53
2023-12-08T19:29:49.027Z,100278.06
2023-12-08T19:32:18.777Z,100278.44
2023-12-08T19:34:47.925Z,100280.81
2023-12-08T19:37:24.212Z,100281.06
2023-12-08T19:39:55.584Z,100289.00
2023-12-08T19:42:24.866Z,100283.47
2023-12-08T19:44:54.454Z,100288.53
2023-12-08T19:47:24.138Z,100289.75
2023-12-08T19:49:52.177Z,100289.03
2023-12-08T19:52:21.696Z,100289.84
2023-12-08T19:54:54.841Z,100294.72
2023-12-08T19:57:25.247Z,100292.72
2023-12-08T19:59:54.689Z,100285.44
2023-12-08T20:02:25.688Z,100288.50
2023-12-08T20:04:54.105Z,100288.03
2023-12-08T20:07:24.505Z,100298.03
2023-12-08T20:09:55.131Z,100292.31
2023-12-08T20:12:25.543Z,100288.91
2023-12-08T20:14:55.005Z,100289.09
2023-12-08T20:17:24.464Z,100287.59
2023-12-08T20:19:53.563Z,100292.47
2023-12-08T20:22:22.789Z,100295.69
2023-12-08T20:24:50.893Z,100286.56
2023-12-08T20:27:19.347Z,100301.63
2023-12-08T20:29:47.496Z,100295.19
2023-12-08T20:32:15.360Z,100301.13
2023-12-08T20:34:44.687Z,100291.34
2023-12-08T20:37:13.962Z,100292.69
2023-12-08T20:39:44.004Z,100309.44
2023-12-08T20:42:12.354Z,100303.31
2023-12-08T20:44:40.347Z,100306.72
2023-12-08T20:47:08.153Z,100302.97
2023-12-08T20:49:36.124Z,100304.84
2023-12-08T20:52:06.658Z,100314.16
2023-12-08T20:54:34.731Z,100326.31
2023-12-08T20:57:02.739Z,100326.97
2023-12-08T20:59:31.108Z,100329.84
2023-12-08T21:02:00.013Z,100327.00
2023-12-08T21:04:28.388Z,100328.88
2023-12-08T21:06:57.482Z,100329.03
2023-12-08T21:09:26.926Z,100335.47
2023-12-08T21:11:54.976Z,100330.91
2023-12-08T21:14:24.162Z,100340.22
2023-12-08T21:16:52.286Z,100344.63
2023-12-08T21:19:23.537Z,100322.66
2023-12-08T21:21:52.289Z,100345.66
2023-12-08T21:24:20.730Z,100338.19
2023-12-08T21:26:50.422Z,100347.34
2023-12-08T21:29:18.535Z,100337.50
2023-12-08T21:31:47.500Z,100345.97
2023-12-08T21:34:15.883Z,100345.47
2023-12-08T21:36:43.884Z,100345.97
2023-12-08T21:39:12.397Z,100331.78
2023-12-08T21:41:40.416Z,100338.75
2023-12-08T21:44:11.016Z,100341.75
2023-12-08T21:46:38.832Z,100330.78
2023-12-08T21:49:07.113Z,100340.09
2023-12-08T21:51:36.862Z,100331.78
2023-12-08T21:54:05.051Z,100341.91
2023-12-08T21:56:33.151Z,100349.53
2023-12-08T21:59:00.994Z,100343.28
2023-12-08T22:01:30.233Z,100348.53
2023-12-08T22:03:59.097Z,100350.06
2023-12-08T22:06:27.688Z,100349.06
2023-12-08T22:08:55.626Z,100355.97
2023-12-08T22:11:23.588Z,100357.50
2023-12-08T22:13:51.590Z,100360.19
2023-12-08T22:16:22.955Z,100361.22
2023-12-08T22:18:53.130Z,100343.94
2023-12-08T22:21:21.811Z,100356.69
2023-12-08T22:23:49.855Z,100351.44
2023-12-08T22:26:18.168Z,100350.72
2023-12-08T22:28:46.336Z,100361.38
2023-12-08T22:31:14.761Z,100366.31
2023-12-08T22:33:42.777Z,100361.59
2023-12-08T22:36:12.302Z,100367.16
2023-12-08T22:38:42.462Z,100367.84
2023-12-08T22:41:10.506Z,100376.97
2023-12-08T22:43:38.481Z,100364.97
2023-12-08T22:46:07.015Z,100380.88
2023-12-08T22:48:35.045Z,100383.91
2023-12-08T22:51:07.794Z,100380.16
2023-12-08T22:53:44.052Z,100367.66
2023-12-08T22:56:12.568Z,100383.22
2023-12-08T22:58:40.991Z,100391.03
2023-12-08T23:01:09.334Z,100383.75
2023-12-08T23:03:37.582Z,100377.81
2023-12-08T23:06:06.372Z,100373.59
2023-12-08T23:08:34.416Z,100383.22
2023-12-08T23:11:05.281Z,100389.63
2023-12-08T23:13:33.340Z,100388.59
2023-12-08T23:16:02.334Z,100397.59
2023-12-08T23:18:30.268Z,100380.16
2023-12-08T23:20:58.917Z,100372.03
2023-12-08T23:23:27.040Z,100385.75
2023-12-08T23:25:55.331Z,100391.31
2023-12-08T23:28:24.479Z,100379.34
2023-12-08T23:30:57.878Z,100380.88
2023-12-08T23:33:31.406Z,100377.63
2023-12-08T23:35:59.612Z,100376.63
2023-12-08T23:38:27.695Z,100369.03
2023-12-08T23:40:55.738Z,100377.66
2023-12-08T23:43:25.222Z,100375.44
2023-12-08T23:45:53.175Z,100381.53
2023-12-08T23:48:21.414Z,100376.81
2023-12-08T23:50:49.596Z,100380.19
2023-12-08T23:53:18.707Z,100381.88
2023-12-08T23:55:47.232Z,100381.56
2023-12-08T23:58:15.304Z,100390.34
